Time;durP1;ratioP1;P1;durP2;ratioP2;P2;SDS_P1;SDS_P2;PMS_P1;PMS_P2;Temp;Humidity;BMP_temperature;BMP_pressure;BME280_temperature;BME280_humidity;BME280_pressure;Samples;Min_cycle;Max_cycle;Signal;HPM_P1;HPM_P2
2022/09/08 00:07:42;;;;;;;9.73;4.20;;;;;;;17.59;100.00;99723.19;20993461;28;20090;-79
2022/09/08 00:17:43;;;;;;;5.27;3.07;;;;;;;17.70;100.00;99723.44;20995581;28;20071;-80
2022/09/08 00:27:44;;;;;;;6.25;3.42;;;;;;;17.63;100.00;99713.25;21005724;28;20052;-80
2022/09/08 00:37:46;;;;;;;5.38;3.08;;;;;;;17.73;100.00;99724.22;21003984;28;20044;-80
2022/09/08 00:47:47;;;;;;;7.70;3.47;;;;;;;17.78;100.00;99738.94;21023021;28;20048;-80
2022/09/08 00:57:48;;;;;;;6.35;3.33;;;;;;;17.76;100.00;99726.72;21025100;28;20051;-79
2022/09/08 01:18:10;;;;;;;6.32;3.65;;;;;;;17.84;100.00;99733.28;21023579;28;20051;-80
2022/09/08 01:28:11;;;;;;;5.18;3.38;;;;;;;17.82;100.00;99734.31;21037078;28;20052;-80
2022/09/08 01:38:12;;;;;;;7.90;3.70;;;;;;;17.84;100.00;99729.78;21027971;28;20040;-79
2022/09/08 01:48:14;;;;;;;7.07;3.70;;;;;;;17.79;100.00;99697.41;21022727;28;20040;-79
2022/09/08 01:58:15;;;;;;;8.95;4.30;;;;;;;17.81;100.00;99711.41;20997454;28;20079;-79
2022/09/08 02:08:16;;;;;;;7.63;3.90;;;;;;;17.86;100.00;99704.06;20989214;28;20496;-79
2022/09/08 02:18:18;;;;;;;8.60;4.22;;;;;;;17.86;100.00;99720.81;20999575;28;20048;-79
2022/09/08 02:28:19;;;;;;;7.35;3.97;;;;;;;17.84;100.00;99713.91;20976406;28;20094;-79
2022/09/08 02:38:21;;;;;;;6.82;3.63;;;;;;;17.86;100.00;99685.53;20977429;28;20520;-80
2022/09/08 02:48:23;;;;;;;5.20;3.40;;;;;;;17.79;100.00;99681.53;21002548;28;20044;-79
2022/09/08 02:58:25;;;;;;;6.40;3.70;;;;;;;17.80;100.00;99672.63;21001057;28;20037;-79
2022/09/08 03:08:26;;;;;;;6.32;3.70;;;;;;;17.84;100.00;99659.13;21002501;28;20412;-79
2022/09/08 03:18:27;;;;;;;10.63;4.35;;;;;;;17.84;100.00;99664.44;21005943;28;20409;-80
2022/09/08 03:28:29;;;;;;;8.15;4.43;;;;;;;17.91;100.00;99656.97;21019442;28;20113;-79
2022/09/08 03:38:30;;;;;;;8.95;4.20;;;;;;;17.82;100.00;99629.25;21018200;28;20040;-79
2022/09/08 03:48:32;;;;;;;9.45;3.50;;;;;;;17.93;100.00;99625.97;21017023;28;20040;-79
2022/09/08 03:58:33;;;;;;;6.57;3.28;;;;;;;18.05;100.00;99637.63;21015531;28;20452;-79
2022/09/08 04:08:35;;;;;;;5.30;2.85;;;;;;;17.82;100.00;99649.56;20998128;28;20044;-79
2022/09/08 04:18:36;;;;;;;5.97;3.30;;;;;;;17.69;100.00;99658.19;21006318;28;20056;-78
2022/09/08 04:28:39;;;;;;;6.82;3.53;;;;;;;17.64;100.00;99668.19;21002097;28;20052;-79
2022/09/08 04:38:40;;;;;;;10.18;4.03;;;;;;;17.67;100.00;99689.19;20987013;28;20055;-79
2022/09/08 04:48:42;;;;;;;6.95;2.72;;;;;;;17.46;100.00;99710.72;20985002;28;20059;-79
2022/09/08 04:58:43;;;;;;;3.72;1.98;;;;;;;17.22;100.00;99729.63;20983811;28;20118;-79
2022/09/08 05:08:44;;;;;;;3.97;1.55;;;;;;;17.02;100.00;99745.72;20988765;28;20045;-79
2022/09/08 05:18:46;;;;;;;3.03;1.42;;;;;;;16.78;100.00;99772.50;21012728;28;20057;-79
2022/09/08 05:28:47;;;;;;;4.22;1.15;;;;;;;16.59;100.00;99791.03;21012254;28;20469;-79
2022/09/08 05:38:48;;;;;;;2.90;1.30;;;;;;;16.80;100.00;99804.13;20995630;28;20044;-79
2022/09/08 05:48:50;;;;;;;2.72;1.10;;;;;;;16.64;100.00;99827.81;21012578;28;20048;-79
2022/09/08 05:58:51;;;;;;;2.42;1.10;;;;;;;16.45;100.00;99842.88;21006699;28;20085;-80
2022/09/08 06:09:01;;;;;;;3.13;0.95;;;;;;;16.44;100.00;99851.72;20987067;28;20050;-80
2022/09/08 06:19:02;;;;;;;3.70;1.13;;;;;;;16.58;100.00;99852.78;20981916;28;20106;-80
2022/09/08 06:29:04;;;;;;;1.55;0.70;;;;;;;16.50;100.00;99862.84;21022526;28;20085;-80
2022/09/08 06:39:05;;;;;;;4.97;1.20;;;;;;;16.56;100.00;99866.97;21035537;28;20075;-80
2022/09/08 06:49:07;;;;;;;3.33;0.90;;;;;;;16.58;100.00;99876.56;21003452;28;20052;-80
2022/09/08 06:59:08;;;;;;;9.07;1.25;;;;;;;16.40;100.00;99874.81;21020448;28;20074;-81
2022/09/08 07:09:09;;;;;;;3.80;1.30;;;;;;;16.66;100.00;99879.66;21014610;28;20071;-79
2022/09/08 07:19:11;;;;;;;6.85;1.27;;;;;;;16.76;100.00;99879.25;20994481;28;20559;-80
2022/09/08 07:29:24;;;;;;;5.25;1.25;;;;;;;16.97;100.00;99882.63;20991216;28;20094;-79
2022/09/08 07:39:26;;;;;;;4.78;1.10;;;;;;;17.09;100.00;99895.22;21004286;28;20115;-79
2022/09/08 07:49:27;;;;;;;2.75;0.90;;;;;;;16.95;100.00;99911.78;20987467;28;20409;-80
2022/09/08 07:59:29;;;;;;;2.72;1.30;;;;;;;17.16;100.00;99916.00;20988162;28;20048;-79
2022/09/08 08:09:31;;;;;;;4.95;1.30;;;;;;;17.31;100.00;99922.31;21023871;28;20437;-79
2022/09/08 08:19:33;;;;;;;4.32;1.05;;;;;;;17.67;100.00;99935.41;21025332;28;20041;-79
2022/09/08 08:29:34;;;;;;;7.30;1.83;;;;;;;17.98;100.00;99944.44;21011519;28;20044;-79
2022/09/08 08:39:36;;;;;;;3.70;1.30;;;;;;;18.12;100.00;99949.00;21009317;28;20048;-79
2022/09/08 08:49:37;;;;;;;4.15;1.23;;;;;;;18.18;100.00;99949.50;21030812;28;20060;-79
2022/09/08 09:10:17;;;;;;;4.55;1.40;;;;;;;18.57;100.00;99966.81;21011551;28;20071;-79
2022/09/08 09:20:18;;;;;;;3.90;1.38;;;;;;;18.50;100.00;99961.94;20991798;28;20052;-79
2022/09/08 09:30:19;;;;;;;1.98;0.85;;;;;;;18.47;100.00;99965.59;20986257;28;20041;-79
2022/09/08 09:40:22;;;;;;;2.78;1.35;;;;;;;18.66;100.00;99965.44;21003012;28;20106;-79
2022/09/08 09:50:24;;;;;;;3.75;1.08;;;;;;;18.59;100.00;99969.34;20983123;28;20049;-79
2022/09/08 10:00:27;;;;;;;3.78;0.82;;;;;;;18.96;100.00;99958.41;20983806;28;20044;-79
2022/09/08 10:10:29;;;;;;;4.03;0.90;;;;;;;18.79;100.00;99960.34;21077426;28;20067;-79
2022/09/08 10:20:30;;;;;;;3.88;0.40;;;;;;;19.23;100.00;99949.81;21067970;28;20101;-79
2022/09/08 10:30:31;;;;;;;1.77;0.45;;;;;;;20.02;100.00;99953.94;21060193;28;20418;-79
2022/09/08 10:40:33;;;;;;;2.05;0.52;;;;;;;20.07;93.94;99950.03;21077525;28;20048;-79
2022/09/08 10:50:35;;;;;;;3.80;0.70;;;;;;;20.68;92.05;99942.69;21057937;28;20044;-79
2022/09/08 11:00:36;;;;;;;3.13;0.65;;;;;;;20.47;85.14;99936.94;21076271;28;20501;-79
2022/09/08 11:10:37;;;;;;;6.65;1.33;;;;;;;20.70;88.05;99931.00;21092198;28;20059;-79
2022/09/08 11:20:39;;;;;;;5.47;0.70;;;;;;;20.94;84.92;99928.53;21087771;28;20048;-78
2022/09/08 11:30:40;;;;;;;4.60;1.00;;;;;;;21.24;80.65;99920.31;21100910;28;20044;-79
2022/09/08 11:40:42;;;;;;;6.78;1.20;;;;;;;21.34;81.19;99925.88;21075599;28;20407;-79
2022/09/08 11:50:43;;;;;;;4.05;0.80;;;;;;;21.37;79.62;99930.16;21094715;28;20056;-79
2022/09/08 12:00:49;;;;;;;6.15;0.88;;;;;;;20.94;86.08;99948.97;21113276;28;20048;-79
2022/09/08 12:10:50;;;;;;;6.15;1.55;;;;;;;20.65;89.79;99954.38;21114799;28;20058;-79
2022/09/08 12:20:52;;;;;;;3.38;0.55;;;;;;;20.17;88.30;99953.88;21096865;28;20044;-79
2022/09/08 12:30:53;;;;;;;3.47;0.70;;;;;;;20.38;88.11;99934.84;21114048;28;20036;-79
2022/09/08 12:40:54;;;;;;;5.10;0.50;;;;;;;20.84;85.20;99915.91;21094793;28;20144;-79
2022/09/08 12:50:56;;;;;;;4.72;0.70;;;;;;;21.29;81.13;99900.50;21109821;28;20454;-79
2022/09/08 13:00:57;;;;;;;4.45;0.70;;;;;;;21.23;79.25;99907.94;21113752;28;20055;-79
2022/09/08 13:10:59;;;;;;;6.75;0.80;;;;;;;21.31;79.74;99898.59;21114210;28;20048;-79
2022/09/08 13:21:00;;;;;;;3.72;0.60;;;;;;;21.34;75.56;99895.75;21112115;28;20044;-79
2022/09/08 13:31:01;;;;;;;5.57;1.10;;;;;;;21.60;76.55;99881.47;21111085;28;20051;-79
2022/09/08 13:41:02;;;;;;;3.70;0.60;;;;;;;22.02;74.78;99880.25;21108097;28;20048;-79
2022/09/08 13:51:04;;;;;;;3.65;0.57;;;;;;;22.25;71.68;99878.63;21091446;28;20536;-78
2022/09/08 14:01:05;;;;;;;4.82;0.80;;;;;;;22.45;71.71;99871.00;21108785;28;20516;-79
2022/09/08 14:11:06;;;;;;;4.38;0.75;;;;;;;22.65;66.87;99867.69;21107842;28;20055;-79
2022/09/08 14:21:08;;;;;;;4.78;0.75;;;;;;;22.41;54.82;99864.16;21109636;28;20047;-78
2022/09/08 14:31:10;;;;;;;4.82;0.60;;;;;;;22.67;53.60;99859.59;21109011;28;20048;-78
2022/09/08 14:41:11;;;;;;;4.38;0.80;;;;;;;22.17;56.55;99857.00;21111119;28;20101;-79
2022/09/08 14:51:13;;;;;;;6.47;1.30;;;;;;;22.05;55.87;99844.53;21116154;28;20051;-79
2022/09/08 15:01:14;;;;;;;2.75;0.60;;;;;;;22.14;55.09;99851.91;21109264;28;20052;-78
2022/09/08 15:11:17;;;;;;;5.53;0.90;;;;;;;22.24;54.40;99841.41;21120151;28;20048;-79
2022/09/08 15:21:19;;;;;;;3.67;1.02;;;;;;;21.83;54.47;99855.03;21127157;28;20048;-79
2022/09/08 15:31:20;;;;;;;5.72;0.77;;;;;;;21.65;55.95;99866.00;21128445;28;20051;-79
2022/09/08 15:41:22;;;;;;;4.63;0.73;;;;;;;21.46;56.00;99866.47;21101950;28;20132;-78
2022/09/08 15:51:23;;;;;;;5.78;0.80;;;;;;;21.34;55.95;99906.41;21103334;28;20114;-78
2022/09/08 16:01:25;;;;;;;6.03;0.90;;;;;;;20.97;60.89;99892.84;21101227;28;20074;-78
2022/09/08 16:11:26;;;;;;;3.53;0.70;;;;;;;20.83;61.37;99907.09;21051707;28;20516;-78
2022/09/08 16:21:28;;;;;;;4.63;0.98;;;;;;;20.46;64.96;99906.81;21020708;28;20049;-78
2022/09/08 16:31:29;;;;;;;5.15;1.00;;;;;;;20.06;71.71;99929.75;21017403;28;20041;-78
2022/09/08 16:41:31;;;;;;;5.25;0.90;;;;;;;18.65;92.47;99922.16;21023672;28;20110;-79
2022/09/08 16:51:32;;;;;;;5.45;0.90;;;;;;;18.54;100.00;99887.44;21019463;28;20045;-80
2022/09/08 17:01:34;;;;;;;4.22;1.08;;;;;;;18.44;100.00;99878.28;21016343;28;20055;-79
2022/09/08 17:11:35;;;;;;;2.83;0.80;;;;;;;18.39;100.00;99875.03;21008278;28;20048;-79
2022/09/08 17:21:36;;;;;;;1.75;0.85;;;;;;;18.03;100.00;99891.19;21008584;28;20052;-79
2022/09/08 17:31:39;;;;;;;4.80;1.00;;;;;;;17.68;100.00;99894.78;21021879;28;20067;-79
2022/09/08 17:41:41;;;;;;;3.85;1.48;;;;;;;17.28;100.00;99897.78;21001977;28;20417;-79
2022/09/08 17:51:43;;;;;;;4.88;1.17;;;;;;;17.02;100.00;99880.59;21000639;28;20361;-79
2022/09/08 18:01:45;;;;;;;3.45;1.08;;;;;;;17.14;100.00;99909.91;20998963;28;20052;-78
2022/09/08 18:11:46;;;;;;;5.93;1.40;;;;;;;17.19;100.00;99910.53;21043281;28;20051;-79
2022/09/08 18:21:47;;;;;;;4.65;1.20;;;;;;;17.19;100.00;99905.25;21086153;28;20256;-79
2022/09/08 18:31:49;;;;;;;2.83;0.98;;;;;;;16.93;100.00;99900.44;21088190;28;20056;-79
2022/09/08 18:41:55;;;;;;;5.45;1.00;;;;;;;16.72;100.00;99928.78;21107939;28;20044;-78
2022/09/08 18:51:57;;;;;;;3.60;0.80;;;;;;;16.59;100.00;99938.19;21069855;28;20048;-78
2022/09/08 19:01:58;;;;;;;6.57;0.63;;;;;;;16.63;100.00;99932.69;21083440;28;20052;-78
2022/09/08 19:12:01;;;;;;;4.38;0.80;;;;;;;16.51;100.00;99927.97;21075648;28;20554;-78
2022/09/08 19:22:02;;;;;;;4.43;1.02;;;;;;;16.29;100.00;99922.00;21058406;28;20482;-78
2022/09/08 19:32:04;;;;;;;3.90;1.20;;;;;;;16.23;100.00;99938.13;21075470;28;20044;-79
2022/09/08 19:42:05;;;;;;;4.90;1.15;;;;;;;16.10;100.00;99930.78;21078969;28;20048;-79
2022/09/08 19:52:07;;;;;;;3.97;1.13;;;;;;;16.01;100.00;99928.56;21079766;28;20052;-79
2022/09/08 20:02:08;;;;;;;4.88;1.40;;;;;;;15.87;100.00;99930.97;21081834;28;20078;-79
2022/09/08 20:12:09;;;;;;;3.47;0.80;;;;;;;15.48;100.00;99954.66;21095568;28;20056;-78
2022/09/08 20:22:13;;;;;;;4.63;1.00;;;;;;;15.88;100.00;99938.81;21078380;28;20139;-78
2022/09/08 20:32:18;;;;;;;4.53;1.02;;;;;;;15.78;100.00;99931.38;21089465;28;20044;-79
2022/09/08 20:42:19;;;;;;;5.00;1.27;;;;;;;15.42;100.00;99937.31;21087085;28;20052;-78
2022/09/08 20:52:20;;;;;;;5.78;1.10;;;;;;;15.46;100.00;99941.53;21068217;28;20044;-78
2022/09/08 21:02:24;;;;;;;4.18;1.13;;;;;;;15.49;100.00;99940.56;21083615;28;20074;-78
2022/09/08 21:12:25;;;;;;;8.10;1.52;;;;;;;15.38;100.00;99938.38;21086049;28;20047;-78
2022/09/08 21:22:27;;;;;;;6.57;1.67;;;;;;;15.25;100.00;99938.03;21085179;28;20052;-77
2022/09/08 21:32:28;;;;;;;5.43;1.27;;;;;;;15.32;100.00;99938.63;21084894;28;20044;-78
2022/09/08 21:42:31;;;;;;;8.63;1.95;;;;;;;15.42;100.00;99939.94;21082311;28;20047;-80
2022/09/08 21:52:32;;;;;;;3.90;1.10;;;;;;;15.67;100.00;99916.03;21086926;28;20408;-81
2022/09/08 22:02:34;;;;;;;4.32;1.20;;;;;;;15.75;100.00;99942.06;21079704;28;20471;-81
2022/09/08 22:12:36;;;;;;;6.43;1.25;;;;;;;15.73;100.00;99928.09;21063281;28;20052;-81
2022/09/08 22:22:39;;;;;;;6.25;1.40;;;;;;;15.52;100.00;99935.13;21061670;28;20052;-80
2022/09/08 22:32:40;;;;;;;5.22;1.50;;;;;;;15.41;100.00;99927.69;21077150;28;20131;-80
2022/09/08 22:42:42;;;;;;;7.78;1.40;;;;;;;15.30;100.00;99927.28;21076849;28;20048;-81
2022/09/08 22:52:44;;;;;;;4.57;1.50;;;;;;;15.35;100.00;99930.59;21076560;28;20051;-81
2022/09/08 23:02:46;;;;;;;5.55;1.48;;;;;;;15.43;100.00;99936.41;21056150;28;20048;-81
2022/09/08 23:12:47;;;;;;;4.60;1.70;;;;;;;15.58;100.00;99938.38;21075142;28;20052;-81
2022/09/08 23:22:48;;;;;;;6.85;1.75;;;;;;;15.56;100.00;99945.47;21058543;28;20048;-81
2022/09/08 23:32:50;;;;;;;5.78;1.60;;;;;;;15.62;100.00;99953.16;21094987;28;20084;-81
2022/09/08 23:42:51;;;;;;;8.88;1.83;;;;;;;15.58;100.00;99950.72;21079478;28;20040;-81
2022/09/08 23:52:53;;;;;;;6.72;1.30;;;;;;;15.57;100.00;99960.41;21073960;28;20052;-80
